sensor_id;sensor_type;location;lat;lon;timestamp;P1;durP1;ratioP1;P2;durP2;ratioP2
6755;SDS011;3415;51.148;7.014;2023-09-18T00:02:07;9.17;;;4.40;;
6755;SDS011;3415;51.148;7.014;2023-09-18T00:04:33;6.27;;;3.50;;
6755;SDS011;3415;51.148;7.014;2023-09-18T00:07:00;7.03;;;3.40;;
6755;SDS011;3415;51.148;7.014;2023-09-18T00:09:27;6.87;;;3.40;;
6755;SDS011;3415;51.148;7.014;2023-09-18T00:11:54;6.10;;;3.50;;
6755;SDS011;3415;51.148;7.014;2023-09-18T00:14:22;7.63;;;4.03;;
6755;SDS011;3415;51.148;7.014;2023-09-18T00:16:49;8.83;;;3.10;;
6755;SDS011;3415;51.148;7.014;2023-09-18T00:19:17;3.47;;;2.80;;
6755;SDS011;3415;51.148;7.014;2023-09-18T00:21:43;4.70;;;2.97;;
6755;SDS011;3415;51.148;7.014;2023-09-18T00:24:10;5.13;;;3.10;;
6755;SDS011;3415;51.148;7.014;2023-09-18T00:26:37;5.30;;;3.10;;
6755;SDS011;3415;51.148;7.014;2023-09-18T00:29:04;4.03;;;3.63;;
6755;SDS011;3415;51.148;7.014;2023-09-18T00:31:32;7.40;;;3.27;;
6755;SDS011;3415;51.148;7.014;2023-09-18T00:33:59;4.87;;;3.27;;
6755;SDS011;3415;51.148;7.014;2023-09-18T00:36:25;4.43;;;3.60;;
6755;SDS011;3415;51.148;7.014;2023-09-18T00:38:52;3.60;;;3.30;;
6755;SDS011;3415;51.148;7.014;2023-09-18T00:41:19;7.27;;;3.40;;
6755;SDS011;3415;51.148;7.014;2023-09-18T00:43:46;4.20;;;3.30;;
6755;SDS011;3415;51.148;7.014;2023-09-18T00:46:13;7.33;;;3.17;;
6755;SDS011;3415;51.148;7.014;2023-09-18T00:48:41;6.33;;;3.37;;
6755;SDS011;3415;51.148;7.014;2023-09-18T00:51:08;6.30;;;3.60;;
6755;SDS011;3415;51.148;7.014;2023-09-18T00:53:35;6.07;;;3.07;;
6755;SDS011;3415;51.148;7.014;2023-09-18T00:56:04;5.50;;;2.90;;
6755;SDS011;3415;51.148;7.014;2023-09-18T00:58:31;4.57;;;3.23;;
6755;SDS011;3415;51.148;7.014;2023-09-18T01:00:59;8.93;;;3.50;;
6755;SDS011;3415;51.148;7.014;2023-09-18T01:03:26;8.20;;;3.40;;
6755;SDS011;3415;51.148;7.014;2023-09-18T01:05:55;4.77;;;3.30;;
6755;SDS011;3415;51.148;7.014;2023-09-18T01:08:22;6.27;;;3.30;;
6755;SDS011;3415;51.148;7.014;2023-09-18T01:10:53;10.00;;;3.33;;
6755;SDS011;3415;51.148;7.014;2023-09-18T01:13:27;5.10;;;3.43;;
6755;SDS011;3415;51.148;7.014;2023-09-18T01:16:01;3.87;;;3.47;;
6755;SDS011;3415;51.148;7.014;2023-09-18T01:18:33;4.43;;;3.33;;
6755;SDS011;3415;51.148;7.014;2023-09-18T01:21:01;6.43;;;2.80;;
6755;SDS011;3415;51.148;7.014;2023-09-18T01:23:29;5.33;;;3.37;;
6755;SDS011;3415;51.148;7.014;2023-09-18T01:25:56;3.90;;;3.17;;
6755;SDS011;3415;51.148;7.014;2023-09-18T01:28:22;6.63;;;3.10;;
6755;SDS011;3415;51.148;7.014;2023-09-18T01:30:49;4.90;;;3.30;;
6755;SDS011;3415;51.148;7.014;2023-09-18T01:33:16;5.23;;;3.27;;
6755;SDS011;3415;51.148;7.014;2023-09-18T01:35:45;4.07;;;3.33;;
6755;SDS011;3415;51.148;7.014;2023-09-18T01:38:12;4.93;;;3.20;;
6755;SDS011;3415;51.148;7.014;2023-09-18T01:40:40;3.07;;;2.70;;
6755;SDS011;3415;51.148;7.014;2023-09-18T01:43:08;5.93;;;2.70;;
6755;SDS011;3415;51.148;7.014;2023-09-18T01:45:35;7.03;;;3.60;;
6755;SDS011;3415;51.148;7.014;2023-09-18T01:48:03;6.20;;;3.40;;
6755;SDS011;3415;51.148;7.014;2023-09-18T01:50:31;5.13;;;3.27;;
6755;SDS011;3415;51.148;7.014;2023-09-18T01:52:58;8.63;;;3.00;;
6755;SDS011;3415;51.148;7.014;2023-09-18T01:55:25;5.80;;;3.50;;
6755;SDS011;3415;51.148;7.014;2023-09-18T01:57:55;5.33;;;2.93;;
6755;SDS011;3415;51.148;7.014;2023-09-18T02:00:22;3.20;;;2.67;;
6755;SDS011;3415;51.148;7.014;2023-09-18T02:02:49;5.87;;;3.90;;
6755;SDS011;3415;51.148;7.014;2023-09-18T02:05:15;8.87;;;3.90;;
6755;SDS011;3415;51.148;7.014;2023-09-18T02:07:42;5.30;;;3.00;;
6755;SDS011;3415;51.148;7.014;2023-09-18T02:10:09;7.70;;;2.70;;
6755;SDS011;3415;51.148;7.014;2023-09-18T02:12:37;6.93;;;3.10;;
6755;SDS011;3415;51.148;7.014;2023-09-18T02:15:07;3.83;;;2.87;;
6755;SDS011;3415;51.148;7.014;2023-09-18T02:17:36;5.57;;;2.80;;
6755;SDS011;3415;51.148;7.014;2023-09-18T02:20:04;8.10;;;2.90;;
6755;SDS011;3415;51.148;7.014;2023-09-18T02:22:36;2.73;;;2.40;;
6755;SDS011;3415;51.148;7.014;2023-09-18T02:25:05;5.73;;;3.07;;
6755;SDS011;3415;51.148;7.014;2023-09-18T02:27:32;3.10;;;2.30;;
6755;SDS011;3415;51.148;7.014;2023-09-18T02:29:59;9.73;;;3.20;;
6755;SDS011;3415;51.148;7.014;2023-09-18T02:32:27;4.10;;;2.60;;
6755;SDS011;3415;51.148;7.014;2023-09-18T02:34:55;9.00;;;2.93;;
6755;SDS011;3415;51.148;7.014;2023-09-18T02:37:21;3.50;;;2.53;;
6755;SDS011;3415;51.148;7.014;2023-09-18T02:39:49;3.40;;;2.60;;
6755;SDS011;3415;51.148;7.014;2023-09-18T02:42:15;5.00;;;3.03;;
6755;SDS011;3415;51.148;7.014;2023-09-18T02:44:42;3.90;;;2.70;;
6755;SDS011;3415;51.148;7.014;2023-09-18T02:47:09;6.97;;;3.20;;
6755;SDS011;3415;51.148;7.014;2023-09-18T02:49:37;4.30;;;2.53;;
6755;SDS011;3415;51.148;7.014;2023-09-18T02:52:04;4.20;;;2.77;;
6755;SDS011;3415;51.148;7.014;2023-09-18T02:54:31;3.67;;;2.67;;
6755;SDS011;3415;51.148;7.014;2023-09-18T02:56:58;5.07;;;2.93;;
6755;SDS011;3415;51.148;7.014;2023-09-18T02:59:25;7.13;;;2.70;;
6755;SDS011;3415;51.148;7.014;2023-09-18T03:01:51;5.00;;;2.87;;
6755;SDS011;3415;51.148;7.014;2023-09-18T03:04:18;4.43;;;2.60;;
6755;SDS011;3415;51.148;7.014;2023-09-18T03:06:47;4.20;;;2.67;;
6755;SDS011;3415;51.148;7.014;2023-09-18T03:09:14;9.00;;;2.90;;
6755;SDS011;3415;51.148;7.014;2023-09-18T03:11:41;7.80;;;3.20;;
6755;SDS011;3415;51.148;7.014;2023-09-18T03:14:08;6.50;;;2.77;;
6755;SDS011;3415;51.148;7.014;2023-09-18T03:16:35;3.80;;;2.80;;
6755;SDS011;3415;51.148;7.014;2023-09-18T03:19:02;8.70;;;2.93;;
6755;SDS011;3415;51.148;7.014;2023-09-18T03:21:29;4.70;;;2.30;;
6755;SDS011;3415;51.148;7.014;2023-09-18T03:23:59;12.07;;;2.67;;
6755;SDS011;3415;51.148;7.014;2023-09-18T03:26:26;4.77;;;2.67;;
6755;SDS011;3415;51.148;7.014;2023-09-18T03:28:53;7.87;;;4.10;;
6755;SDS011;3415;51.148;7.014;2023-09-18T03:31:20;5.43;;;2.97;;
6755;SDS011;3415;51.148;7.014;2023-09-18T03:33:46;7.37;;;3.20;;
6755;SDS011;3415;51.148;7.014;2023-09-18T03:36:13;9.03;;;3.20;;
6755;SDS011;3415;51.148;7.014;2023-09-18T03:38:40;4.37;;;3.27;;
6755;SDS011;3415;51.148;7.014;2023-09-18T03:41:08;5.20;;;2.63;;
6755;SDS011;3415;51.148;7.014;2023-09-18T03:43:35;3.67;;;2.40;;
6755;SDS011;3415;51.148;7.014;2023-09-18T03:46:04;4.87;;;3.30;;
6755;SDS011;3415;51.148;7.014;2023-09-18T03:48:31;5.93;;;3.00;;
6755;SDS011;3415;51.148;7.014;2023-09-18T03:51:02;8.77;;;3.50;;
6755;SDS011;3415;51.148;7.014;2023-09-18T03:53:29;9.40;;;3.20;;
6755;SDS011;3415;51.148;7.014;2023-09-18T03:55:56;9.23;;;3.27;;
6755;SDS011;3415;51.148;7.014;2023-09-18T03:58:24;5.67;;;3.60;;
6755;SDS011;3415;51.148;7.014;2023-09-18T04:00:51;4.87;;;2.87;;
6755;SDS011;3415;51.148;7.014;2023-09-18T04:03:18;3.53;;;3.20;;
6755;SDS011;3415;51.148;7.014;2023-09-18T04:05:45;6.97;;;4.03;;
6755;SDS011;3415;51.148;7.014;2023-09-18T04:08:12;5.10;;;3.90;;
6755;SDS011;3415;51.148;7.014;2023-09-18T04:10:39;8.73;;;3.33;;
6755;SDS011;3415;51.148;7.014;2023-09-18T04:13:05;5.80;;;2.90;;
6755;SDS011;3415;51.148;7.014;2023-09-18T04:15:35;4.93;;;3.20;;
6755;SDS011;3415;51.148;7.014;2023-09-18T04:18:03;10.17;;;3.07;;
6755;SDS011;3415;51.148;7.014;2023-09-18T04:20:30;6.90;;;3.70;;
6755;SDS011;3415;51.148;7.014;2023-09-18T04:25:43;6.73;;;3.47;;
6755;SDS011;3415;51.148;7.014;2023-09-18T04:28:11;6.90;;;3.20;;
6755;SDS011;3415;51.148;7.014;2023-09-18T04:30:40;11.87;;;3.20;;
6755;SDS011;3415;51.148;7.014;2023-09-18T04:33:06;10.97;;;3.60;;
6755;SDS011;3415;51.148;7.014;2023-09-18T04:35:33;4.57;;;3.23;;
6755;SDS011;3415;51.148;7.014;2023-09-18T04:38:00;5.63;;;3.30;;
6755;SDS011;3415;51.148;7.014;2023-09-18T04:40:27;6.07;;;3.07;;
6755;SDS011;3415;51.148;7.014;2023-09-18T04:42:57;8.30;;;3.90;;
6755;SDS011;3415;51.148;7.014;2023-09-18T04:45:23;20.13;;;3.37;;
6755;SDS011;3415;51.148;7.014;2023-09-18T04:47:52;8.77;;;3.93;;
6755;SDS011;3415;51.148;7.014;2023-09-18T04:50:19;5.30;;;3.00;;
6755;SDS011;3415;51.148;7.014;2023-09-18T04:52:46;4.70;;;2.87;;
6755;SDS011;3415;51.148;7.014;2023-09-18T04:55:13;7.33;;;3.10;;
6755;SDS011;3415;51.148;7.014;2023-09-18T04:57:40;10.20;;;3.97;;
6755;SDS011;3415;51.148;7.014;2023-09-18T05:00:07;7.03;;;3.33;;
6755;SDS011;3415;51.148;7.014;2023-09-18T05:02:38;4.67;;;3.03;;
6755;SDS011;3415;51.148;7.014;2023-09-18T05:05:07;8.33;;;3.30;;
6755;SDS011;3415;51.148;7.014;2023-09-18T05:07:34;5.47;;;2.90;;
6755;SDS011;3415;51.148;7.014;2023-09-18T05:10:01;9.00;;;3.73;;
6755;SDS011;3415;51.148;7.014;2023-09-18T05:12:29;10.73;;;3.30;;
6755;SDS011;3415;51.148;7.014;2023-09-18T05:14:57;6.37;;;3.03;;
6755;SDS011;3415;51.148;7.014;2023-09-18T05:17:38;7.30;;;2.63;;
6755;SDS011;3415;51.148;7.014;2023-09-18T05:20:09;8.20;;;2.73;;
6755;SDS011;3415;51.148;7.014;2023-09-18T05:22:38;9.20;;;2.90;;
6755;SDS011;3415;51.148;7.014;2023-09-18T05:25:05;6.80;;;3.13;;
6755;SDS011;3415;51.148;7.014;2023-09-18T05:27:33;8.37;;;3.33;;
6755;SDS011;3415;51.148;7.014;2023-09-18T05:29:59;4.57;;;3.10;;
6755;SDS011;3415;51.148;7.014;2023-09-18T05:32:26;4.97;;;2.77;;
6755;SDS011;3415;51.148;7.014;2023-09-18T05:34:53;7.37;;;3.33;;
6755;SDS011;3415;51.148;7.014;2023-09-18T05:37:21;11.13;;;3.83;;
6755;SDS011;3415;51.148;7.014;2023-09-18T05:39:48;13.00;;;2.90;;
6755;SDS011;3415;51.148;7.014;2023-09-18T05:42:15;5.03;;;2.67;;
6755;SDS011;3415;51.148;7.014;2023-09-18T05:44:42;8.03;;;3.17;;
6755;SDS011;3415;51.148;7.014;2023-09-18T05:47:09;6.33;;;3.13;;
6755;SDS011;3415;51.148;7.014;2023-09-18T05:49:36;6.87;;;3.00;;
6755;SDS011;3415;51.148;7.014;2023-09-18T05:52:03;5.80;;;2.43;;
6755;SDS011;3415;51.148;7.014;2023-09-18T05:54:31;4.03;;;2.70;;
6755;SDS011;3415;51.148;7.014;2023-09-18T05:56:58;6.10;;;2.17;;
6755;SDS011;3415;51.148;7.014;2023-09-18T05:59:26;5.23;;;3.00;;
6755;SDS011;3415;51.148;7.014;2023-09-18T06:01:53;3.63;;;2.33;;
6755;SDS011;3415;51.148;7.014;2023-09-18T06:04:20;4.83;;;2.43;;
6755;SDS011;3415;51.148;7.014;2023-09-18T06:06:48;5.63;;;2.47;;
6755;SDS011;3415;51.148;7.014;2023-09-18T06:09:16;4.77;;;2.53;;
6755;SDS011;3415;51.148;7.014;2023-09-18T06:11:44;6.03;;;3.40;;
6755;SDS011;3415;51.148;7.014;2023-09-18T06:14:11;4.03;;;2.10;;
6755;SDS011;3415;51.148;7.014;2023-09-18T06:16:37;3.93;;;2.70;;
6755;SDS011;3415;51.148;7.014;2023-09-18T06:19:04;6.20;;;2.87;;
6755;SDS011;3415;51.148;7.014;2023-09-18T06:21:31;3.00;;;2.20;;
6755;SDS011;3415;51.148;7.014;2023-09-18T06:23:58;5.80;;;2.90;;
6755;SDS011;3415;51.148;7.014;2023-09-18T06:26:24;5.00;;;2.93;;
6755;SDS011;3415;51.148;7.014;2023-09-18T06:28:54;6.43;;;3.10;;
6755;SDS011;3415;51.148;7.014;2023-09-18T06:31:21;11.50;;;3.17;;
6755;SDS011;3415;51.148;7.014;2023-09-18T06:33:48;4.83;;;2.40;;
6755;SDS011;3415;51.148;7.014;2023-09-18T06:36:15;3.40;;;2.50;;
6755;SDS011;3415;51.148;7.014;2023-09-18T06:38:42;4.90;;;2.63;;
6755;SDS011;3415;51.148;7.014;2023-09-18T06:41:08;5.43;;;2.73;;
6755;SDS011;3415;51.148;7.014;2023-09-18T06:43:35;6.20;;;2.30;;
6755;SDS011;3415;51.148;7.014;2023-09-18T06:46:03;7.27;;;2.60;;
6755;SDS011;3415;51.148;7.014;2023-09-18T06:48:32;3.80;;;2.13;;
6755;SDS011;3415;51.148;7.014;2023-09-18T06:50:59;5.93;;;2.20;;
6755;SDS011;3415;51.148;7.014;2023-09-18T06:53:27;4.00;;;2.27;;
6755;SDS011;3415;51.148;7.014;2023-09-18T06:55:54;5.37;;;2.60;;
6755;SDS011;3415;51.148;7.014;2023-09-18T06:58:21;10.87;;;2.53;;
6755;SDS011;3415;51.148;7.014;2023-09-18T07:00:47;3.00;;;2.03;;
6755;SDS011;3415;51.148;7.014;2023-09-18T07:03:16;5.60;;;2.30;;
6755;SDS011;3415;51.148;7.014;2023-09-18T07:05:43;13.97;;;2.20;;
6755;SDS011;3415;51.148;7.014;2023-09-18T07:08:11;2.77;;;2.13;;
6755;SDS011;3415;51.148;7.014;2023-09-18T07:10:38;5.53;;;2.20;;
6755;SDS011;3415;51.148;7.014;2023-09-18T07:13:06;3.13;;;1.93;;
6755;SDS011;3415;51.148;7.014;2023-09-18T07:15:32;2.80;;;1.93;;
6755;SDS011;3415;51.148;7.014;2023-09-18T07:17:59;3.60;;;2.40;;
6755;SDS011;3415;51.148;7.014;2023-09-18T07:20:28;3.60;;;2.00;;
6755;SDS011;3415;51.148;7.014;2023-09-18T07:22:55;4.37;;;2.17;;
6755;SDS011;3415;51.148;7.014;2023-09-18T07:25:22;5.33;;;2.37;;
6755;SDS011;3415;51.148;7.014;2023-09-18T07:27:49;7.53;;;1.57;;
6755;SDS011;3415;51.148;7.014;2023-09-18T07:30:16;8.30;;;1.57;;
6755;SDS011;3415;51.148;7.014;2023-09-18T07:32:44;11.70;;;2.63;;
6755;SDS011;3415;51.148;7.014;2023-09-18T07:35:12;8.10;;;2.23;;
6755;SDS011;3415;51.148;7.014;2023-09-18T07:37:41;4.30;;;2.10;;
6755;SDS011;3415;51.148;7.014;2023-09-18T07:40:10;3.80;;;2.03;;
6755;SDS011;3415;51.148;7.014;2023-09-18T07:42:37;4.33;;;1.70;;
6755;SDS011;3415;51.148;7.014;2023-09-18T07:45:05;5.67;;;1.80;;
6755;SDS011;3415;51.148;7.014;2023-09-18T07:47:32;4.10;;;1.87;;
6755;SDS011;3415;51.148;7.014;2023-09-18T07:49:59;6.37;;;3.90;;
6755;SDS011;3415;51.148;7.014;2023-09-18T07:52:26;6.43;;;1.87;;
6755;SDS011;3415;51.148;7.014;2023-09-18T07:54:54;4.97;;;1.90;;
6755;SDS011;3415;51.148;7.014;2023-09-18T07:57:23;10.73;;;2.20;;
6755;SDS011;3415;51.148;7.014;2023-09-18T07:59:50;2.77;;;1.83;;
6755;SDS011;3415;51.148;7.014;2023-09-18T08:02:17;2.60;;;1.83;;
6755;SDS011;3415;51.148;7.014;2023-09-18T08:04:44;2.43;;;1.70;;
6755;SDS011;3415;51.148;7.014;2023-09-18T08:07:11;4.00;;;2.00;;
6755;SDS011;3415;51.148;7.014;2023-09-18T08:09:37;5.60;;;2.10;;
6755;SDS011;3415;51.148;7.014;2023-09-18T08:12:07;3.40;;;1.50;;
6755;SDS011;3415;51.148;7.014;2023-09-18T08:14:34;3.73;;;1.87;;
6755;SDS011;3415;51.148;7.014;2023-09-18T08:17:02;2.70;;;1.60;;
6755;SDS011;3415;51.148;7.014;2023-09-18T08:19:29;2.60;;;1.70;;
6755;SDS011;3415;51.148;7.014;2023-09-18T08:21:57;3.53;;;1.73;;
6755;SDS011;3415;51.148;7.014;2023-09-18T08:24:25;1.83;;;1.63;;
6755;SDS011;3415;51.148;7.014;2023-09-18T08:26:52;9.43;;;1.70;;
6755;SDS011;3415;51.148;7.014;2023-09-18T08:29:21;4.70;;;2.00;;
6755;SDS011;3415;51.148;7.014;2023-09-18T08:31:48;1.70;;;1.10;;
6755;SDS011;3415;51.148;7.014;2023-09-18T08:34:15;7.53;;;1.30;;
6755;SDS011;3415;51.148;7.014;2023-09-18T08:36:42;1.97;;;1.30;;
6755;SDS011;3415;51.148;7.014;2023-09-18T08:39:09;3.10;;;1.10;;
6755;SDS011;3415;51.148;7.014;2023-09-18T08:41:37;1.00;;;0.90;;
6755;SDS011;3415;51.148;7.014;2023-09-18T08:44:08;2.90;;;1.40;;
6755;SDS011;3415;51.148;7.014;2023-09-18T08:46:37;3.73;;;1.10;;
6755;SDS011;3415;51.148;7.014;2023-09-18T08:49:04;1.57;;;1.47;;
6755;SDS011;3415;51.148;7.014;2023-09-18T08:51:33;1.00;;;1.00;;
6755;SDS011;3415;51.148;7.014;2023-09-18T08:54:01;2.70;;;1.23;;
6755;SDS011;3415;51.148;7.014;2023-09-18T08:56:30;3.03;;;1.10;;
6755;SDS011;3415;51.148;7.014;2023-09-18T08:58:58;3.77;;;1.20;;
6755;SDS011;3415;51.148;7.014;2023-09-18T09:01:25;2.20;;;1.30;;
6755;SDS011;3415;51.148;7.014;2023-09-18T09:03:54;1.27;;;1.17;;
6755;SDS011;3415;51.148;7.014;2023-09-18T09:06:20;2.00;;;1.50;;
6755;SDS011;3415;51.148;7.014;2023-09-18T09:08:47;2.23;;;1.20;;
6755;SDS011;3415;51.148;7.014;2023-09-18T09:11:14;1.23;;;1.00;;
6755;SDS011;3415;51.148;7.014;2023-09-18T09:13:40;1.20;;;1.07;;
6755;SDS011;3415;51.148;7.014;2023-09-18T09:16:07;1.40;;;1.00;;
6755;SDS011;3415;51.148;7.014;2023-09-18T09:18:46;3.60;;;1.50;;
6755;SDS011;3415;51.148;7.014;2023-09-18T09:21:16;1.07;;;0.97;;
6755;SDS011;3415;51.148;7.014;2023-09-18T09:23:47;5.10;;;1.23;;
6755;SDS011;3415;51.148;7.014;2023-09-18T09:26:17;1.40;;;1.10;;
6755;SDS011;3415;51.148;7.014;2023-09-18T09:28:46;1.20;;;1.10;;
6755;SDS011;3415;51.148;7.014;2023-09-18T09:31:22;3.10;;;1.50;;
6755;SDS011;3415;51.148;7.014;2023-09-18T09:33:51;2.50;;;1.20;;
6755;SDS011;3415;51.148;7.014;2023-09-18T09:36:20;0.90;;;0.90;;
6755;SDS011;3415;51.148;7.014;2023-09-18T09:38:47;2.10;;;1.17;;
6755;SDS011;3415;51.148;7.014;2023-09-18T09:41:14;2.20;;;1.47;;
6755;SDS011;3415;51.148;7.014;2023-09-18T09:43:43;1.17;;;1.07;;
6755;SDS011;3415;51.148;7.014;2023-09-18T09:46:14;2.33;;;1.20;;
6755;SDS011;3415;51.148;7.014;2023-09-18T09:48:57;1.67;;;1.20;;
6755;SDS011;3415;51.148;7.014;2023-09-18T09:51:27;1.50;;;1.23;;
6755;SDS011;3415;51.148;7.014;2023-09-18T09:53:54;1.10;;;0.87;;
6755;SDS011;3415;51.148;7.014;2023-09-18T09:56:37;1.67;;;1.37;;
6755;SDS011;3415;51.148;7.014;2023-09-18T09:59:06;1.27;;;1.10;;
6755;SDS011;3415;51.148;7.014;2023-09-18T10:01:33;14.83;;;1.70;;
6755;SDS011;3415;51.148;7.014;2023-09-18T10:04:01;1.10;;;1.03;;
6755;SDS011;3415;51.148;7.014;2023-09-18T10:06:33;1.33;;;1.23;;
6755;SDS011;3415;51.148;7.014;2023-09-18T10:09:02;2.57;;;1.47;;
6755;SDS011;3415;51.148;7.014;2023-09-18T10:11:30;1.00;;;0.90;;
6755;SDS011;3415;51.148;7.014;2023-09-18T10:14:03;1.87;;;1.40;;
6755;SDS011;3415;51.148;7.014;2023-09-18T10:16:36;1.40;;;1.30;;
6755;SDS011;3415;51.148;7.014;2023-09-18T10:19:06;2.73;;;1.20;;
6755;SDS011;3415;51.148;7.014;2023-09-18T10:21:41;1.20;;;1.10;;
6755;SDS011;3415;51.148;7.014;2023-09-18T10:24:14;2.83;;;1.80;;
6755;SDS011;3415;51.148;7.014;2023-09-18T10:26:47;2.50;;;1.60;;
6755;SDS011;3415;51.148;7.014;2023-09-18T10:29:17;2.80;;;1.30;;
6755;SDS011;3415;51.148;7.014;2023-09-18T10:31:46;5.93;;;1.63;;
6755;SDS011;3415;51.148;7.014;2023-09-18T10:34:14;2.63;;;1.20;;
6755;SDS011;3415;51.148;7.014;2023-09-18T10:36:44;2.80;;;0.97;;
6755;SDS011;3415;51.148;7.014;2023-09-18T10:39:13;1.67;;;1.30;;
6755;SDS011;3415;51.148;7.014;2023-09-18T10:41:44;4.10;;;1.53;;
6755;SDS011;3415;51.148;7.014;2023-09-18T10:44:14;3.43;;;1.30;;
6755;SDS011;3415;51.148;7.014;2023-09-18T10:46:41;1.60;;;1.50;;
6755;SDS011;3415;51.148;7.014;2023-09-18T10:49:08;1.50;;;1.40;;
6755;SDS011;3415;51.148;7.014;2023-09-18T10:51:36;1.90;;;1.40;;
6755;SDS011;3415;51.148;7.014;2023-09-18T10:54:08;10.33;;;1.70;;
6755;SDS011;3415;51.148;7.014;2023-09-18T10:56:35;2.47;;;1.40;;
6755;SDS011;3415;51.148;7.014;2023-09-18T10:59:05;1.70;;;1.23;;
6755;SDS011;3415;51.148;7.014;2023-09-18T11:01:34;4.23;;;1.37;;
6755;SDS011;3415;51.148;7.014;2023-09-18T11:04:03;1.00;;;1.00;;
6755;SDS011;3415;51.148;7.014;2023-09-18T11:06:37;4.87;;;1.37;;
6755;SDS011;3415;51.148;7.014;2023-09-18T11:09:40;4.03;;;1.30;;
6755;SDS011;3415;51.148;7.014;2023-09-18T11:12:08;3.27;;;1.50;;
6755;SDS011;3415;51.148;7.014;2023-09-18T11:14:43;3.20;;;1.40;;
6755;SDS011;3415;51.148;7.014;2023-09-18T11:17:34;4.10;;;1.03;;
6755;SDS011;3415;51.148;7.014;2023-09-18T11:20:02;1.77;;;1.10;;
6755;SDS011;3415;51.148;7.014;2023-09-18T11:22:37;1.50;;;1.20;;
6755;SDS011;3415;51.148;7.014;2023-09-18T11:28:14;6.93;;;1.20;;
6755;SDS011;3415;51.148;7.014;2023-09-18T11:30:52;1.50;;;1.10;;
6755;SDS011;3415;51.148;7.014;2023-09-18T11:33:29;1.43;;;1.27;;
6755;SDS011;3415;51.148;7.014;2023-09-18T11:35:57;3.30;;;1.33;;
6755;SDS011;3415;51.148;7.014;2023-09-18T11:38:30;1.40;;;1.30;;
6755;SDS011;3415;51.148;7.014;2023-09-18T11:40:58;1.97;;;0.90;;
6755;SDS011;3415;51.148;7.014;2023-09-18T11:43:28;2.20;;;1.23;;
6755;SDS011;3415;51.148;7.014;2023-09-18T11:45:56;2.50;;;1.00;;
6755;SDS011;3415;51.148;7.014;2023-09-18T11:48:24;7.20;;;1.73;;
6755;SDS011;3415;51.148;7.014;2023-09-18T11:50:54;1.87;;;1.60;;
6755;SDS011;3415;51.148;7.014;2023-09-18T11:53:23;1.93;;;1.30;;
6755;SDS011;3415;51.148;7.014;2023-09-18T11:55:50;1.43;;;1.33;;
6755;SDS011;3415;51.148;7.014;2023-09-18T11:58:17;2.70;;;1.20;;
6755;SDS011;3415;51.148;7.014;2023-09-18T12:00:49;3.03;;;1.23;;
6755;SDS011;3415;51.148;7.014;2023-09-18T12:03:17;1.17;;;0.93;;
6755;SDS011;3415;51.148;7.014;2023-09-18T12:05:50;3.30;;;1.40;;
6755;SDS011;3415;51.148;7.014;2023-09-18T12:08:18;1.70;;;1.20;;
6755;SDS011;3415;51.148;7.014;2023-09-18T12:10:47;1.20;;;1.10;;
6755;SDS011;3415;51.148;7.014;2023-09-18T12:13:15;1.87;;;1.23;;
6755;SDS011;3415;51.148;7.014;2023-09-18T12:15:42;2.50;;;1.37;;
6755;SDS011;3415;51.148;7.014;2023-09-18T12:18:10;1.70;;;1.30;;
6755;SDS011;3415;51.148;7.014;2023-09-18T12:20:44;1.90;;;1.20;;
6755;SDS011;3415;51.148;7.014;2023-09-18T12:23:12;1.80;;;1.50;;
6755;SDS011;3415;51.148;7.014;2023-09-18T12:25:38;1.20;;;1.10;;
6755;SDS011;3415;51.148;7.014;2023-09-18T12:28:06;5.20;;;1.60;;
6755;SDS011;3415;51.148;7.014;2023-09-18T12:30:33;2.43;;;1.30;;
6755;SDS011;3415;51.148;7.014;2023-09-18T12:33:00;2.20;;;1.47;;
6755;SDS011;3415;51.148;7.014;2023-09-18T12:35:30;1.30;;;1.20;;
6755;SDS011;3415;51.148;7.014;2023-09-18T12:37:57;3.73;;;1.10;;
6755;SDS011;3415;51.148;7.014;2023-09-18T12:40:26;1.30;;;1.20;;
6755;SDS011;3415;51.148;7.014;2023-09-18T12:42:55;2.10;;;1.40;;
6755;SDS011;3415;51.148;7.014;2023-09-18T12:45:23;2.60;;;1.57;;
6755;SDS011;3415;51.148;7.014;2023-09-18T12:47:50;2.70;;;2.47;;
6755;SDS011;3415;51.148;7.014;2023-09-18T12:50:18;1.93;;;1.13;;
6755;SDS011;3415;51.148;7.014;2023-09-18T12:52:46;3.60;;;1.50;;
6755;SDS011;3415;51.148;7.014;2023-09-18T12:55:22;3.57;;;1.70;;
6755;SDS011;3415;51.148;7.014;2023-09-18T12:57:50;1.30;;;1.20;;
6755;SDS011;3415;51.148;7.014;2023-09-18T13:00:18;1.50;;;1.33;;
6755;SDS011;3415;51.148;7.014;2023-09-18T13:02:47;1.07;;;1.00;;
6755;SDS011;3415;51.148;7.014;2023-09-18T13:05:18;2.63;;;1.10;;
6755;SDS011;3415;51.148;7.014;2023-09-18T13:07:47;3.30;;;1.53;;
6755;SDS011;3415;51.148;7.014;2023-09-18T13:10:16;1.80;;;1.40;;
6755;SDS011;3415;51.148;7.014;2023-09-18T13:12:43;2.27;;;1.30;;
6755;SDS011;3415;51.148;7.014;2023-09-18T13:15:12;1.73;;;1.10;;
6755;SDS011;3415;51.148;7.014;2023-09-18T13:17:40;2.10;;;1.40;;
6755;SDS011;3415;51.148;7.014;2023-09-18T13:20:10;2.00;;;1.43;;
6755;SDS011;3415;51.148;7.014;2023-09-18T13:22:39;1.90;;;1.10;;
6755;SDS011;3415;51.148;7.014;2023-09-18T13:25:08;1.60;;;1.50;;
6755;SDS011;3415;51.148;7.014;2023-09-18T13:27:37;2.17;;;1.07;;
6755;SDS011;3415;51.148;7.014;2023-09-18T13:30:04;1.30;;;1.20;;
6755;SDS011;3415;51.148;7.014;2023-09-18T13:32:36;1.10;;;1.10;;
6755;SDS011;3415;51.148;7.014;2023-09-18T13:35:03;1.63;;;1.30;;
6755;SDS011;3415;51.148;7.014;2023-09-18T13:37:31;1.40;;;1.30;;
6755;SDS011;3415;51.148;7.014;2023-09-18T13:39:58;1.50;;;1.30;;
6755;SDS011;3415;51.148;7.014;2023-09-18T13:42:28;2.60;;;1.37;;
6755;SDS011;3415;51.148;7.014;2023-09-18T13:44:56;3.07;;;1.50;;
6755;SDS011;3415;51.148;7.014;2023-09-18T13:47:25;3.90;;;1.57;;
6755;SDS011;3415;51.148;7.014;2023-09-18T13:49:52;1.30;;;1.20;;
6755;SDS011;3415;51.148;7.014;2023-09-18T13:52:21;3.53;;;1.53;;
6755;SDS011;3415;51.148;7.014;2023-09-18T13:54:48;1.73;;;1.40;;
6755;SDS011;3415;51.148;7.014;2023-09-18T13:57:17;1.33;;;1.27;;
6755;SDS011;3415;51.148;7.014;2023-09-18T13:59:45;3.43;;;1.60;;
6755;SDS011;3415;51.148;7.014;2023-09-18T14:02:14;2.90;;;1.23;;
6755;SDS011;3415;51.148;7.014;2023-09-18T14:04:40;2.60;;;1.60;;
6755;SDS011;3415;51.148;7.014;2023-09-18T14:07:08;4.50;;;1.20;;
6755;SDS011;3415;51.148;7.014;2023-09-18T14:09:36;2.53;;;1.40;;
6755;SDS011;3415;51.148;7.014;2023-09-18T14:12:03;1.20;;;1.10;;
6755;SDS011;3415;51.148;7.014;2023-09-18T14:14:32;1.23;;;1.13;;
6755;SDS011;3415;51.148;7.014;2023-09-18T14:17:01;2.10;;;1.30;;
6755;SDS011;3415;51.148;7.014;2023-09-18T14:19:29;1.50;;;1.40;;
6755;SDS011;3415;51.148;7.014;2023-09-18T14:21:55;1.43;;;1.27;;
6755;SDS011;3415;51.148;7.014;2023-09-18T14:24:22;4.40;;;1.70;;
6755;SDS011;3415;51.148;7.014;2023-09-18T14:26:50;2.20;;;1.30;;
6755;SDS011;3415;51.148;7.014;2023-09-18T14:29:17;1.77;;;1.13;;
6755;SDS011;3415;51.148;7.014;2023-09-18T14:31:44;0.93;;;0.93;;
6755;SDS011;3415;51.148;7.014;2023-09-18T14:34:13;1.60;;;1.30;;
6755;SDS011;3415;51.148;7.014;2023-09-18T14:36:39;1.87;;;1.37;;
6755;SDS011;3415;51.148;7.014;2023-09-18T14:39:06;1.60;;;1.50;;
6755;SDS011;3415;51.148;7.014;2023-09-18T14:41:34;1.67;;;1.43;;
6755;SDS011;3415;51.148;7.014;2023-09-18T14:44:02;2.13;;;1.17;;
6755;SDS011;3415;51.148;7.014;2023-09-18T14:46:29;2.50;;;1.57;;
6755;SDS011;3415;51.148;7.014;2023-09-18T14:48:56;2.10;;;1.47;;
6755;SDS011;3415;51.148;7.014;2023-09-18T14:51:24;2.30;;;1.13;;
6755;SDS011;3415;51.148;7.014;2023-09-18T14:53:51;2.00;;;1.40;;
6755;SDS011;3415;51.148;7.014;2023-09-18T14:56:19;1.83;;;1.33;;
6755;SDS011;3415;51.148;7.014;2023-09-18T14:58:46;1.77;;;1.30;;
6755;SDS011;3415;51.148;7.014;2023-09-18T15:01:12;2.07;;;1.23;;
6755;SDS011;3415;51.148;7.014;2023-09-18T15:03:39;1.43;;;1.30;;
6755;SDS011;3415;51.148;7.014;2023-09-18T15:06:07;1.30;;;1.10;;
6755;SDS011;3415;51.148;7.014;2023-09-18T15:08:35;5.93;;;1.00;;
6755;SDS011;3415;51.148;7.014;2023-09-18T15:11:02;2.43;;;1.43;;
6755;SDS011;3415;51.148;7.014;2023-09-18T15:13:28;1.20;;;1.20;;
6755;SDS011;3415;51.148;7.014;2023-09-18T15:15:56;1.43;;;1.20;;
6755;SDS011;3415;51.148;7.014;2023-09-18T15:18:23;1.67;;;1.50;;
6755;SDS011;3415;51.148;7.014;2023-09-18T15:20:51;2.27;;;1.53;;
6755;SDS011;3415;51.148;7.014;2023-09-18T15:23:19;1.83;;;1.50;;
6755;SDS011;3415;51.148;7.014;2023-09-18T15:25:49;1.80;;;1.20;;
6755;SDS011;3415;51.148;7.014;2023-09-18T15:28:18;3.50;;;1.17;;